sensor_id;sensor_type;location;lat;lon;timestamp;pressure;altitude;pressure_sealevel;temperature;humidity
3176;BME280;1599;51.564;6.990;2024-03-08T00:02:03;101277.72;;;3.96;100.00
3176;BME280;1599;51.564;6.990;2024-03-08T00:04:29;101265.19;;;3.72;100.00
3176;BME280;1599;51.564;6.990;2024-03-08T00:06:55;101274.47;;;3.78;100.00
3176;BME280;1599;51.564;6.990;2024-03-08T00:09:21;101264.53;;;3.70;100.00
3176;BME280;1599;51.564;6.990;2024-03-08T00:11:47;101267.94;;;3.87;100.00
3176;BME280;1599;51.564;6.990;2024-03-08T00:14:16;101265.75;;;3.82;100.00
3176;BME280;1599;51.564;6.990;2024-03-08T00:16:42;101261.06;;;3.76;100.00
3176;BME280;1599;51.564;6.990;2024-03-08T00:19:09;101260.53;;;3.58;100.00
3176;BME280;1599;51.564;6.990;2024-03-08T00:21:35;101260.47;;;3.66;100.00
3176;BME280;1599;51.564;6.990;2024-03-08T00:24:01;101258.69;;;3.73;100.00
3176;BME280;1599;51.564;6.990;2024-03-08T00:26:27;101268.44;;;3.67;100.00
3176;BME280;1599;51.564;6.990;2024-03-08T00:28:54;101269.03;;;3.55;100.00
3176;BME280;1599;51.564;6.990;2024-03-08T00:31:20;101254.09;;;3.59;100.00
3176;BME280;1599;51.564;6.990;2024-03-08T00:33:46;101262.63;;;3.70;100.00
3176;BME280;1599;51.564;6.990;2024-03-08T00:36:11;101256.38;;;3.70;100.00
3176;BME280;1599;51.564;6.990;2024-03-08T00:38:37;101254.44;;;3.56;100.00
3176;BME280;1599;51.564;6.990;2024-03-08T00:41:03;101254.09;;;3.59;100.00
3176;BME280;1599;51.564;6.990;2024-03-08T00:43:29;101256.09;;;3.65;100.00
3176;BME280;1599;51.564;6.990;2024-03-08T00:45:56;101249.38;;;3.53;100.00
3176;BME280;1599;51.564;6.990;2024-03-08T00:48:23;101249.63;;;3.43;100.00
3176;BME280;1599;51.564;6.990;2024-03-08T00:50:49;101248.06;;;3.49;100.00
3176;BME280;1599;51.564;6.990;2024-03-08T00:53:14;101242.38;;;3.58;100.00
3176;BME280;1599;51.564;6.990;2024-03-08T00:55:40;101247.69;;;3.52;100.00
3176;BME280;1599;51.564;6.990;2024-03-08T00:58:06;101238.25;;;3.40;100.00
3176;BME280;1599;51.564;6.990;2024-03-08T01:00:31;101238.22;;;3.48;100.00
3176;BME280;1599;51.564;6.990;2024-03-08T01:02:57;101230.56;;;3.51;100.00
3176;BME280;1599;51.564;6.990;2024-03-08T01:05:24;101232.59;;;3.49;100.00
3176;BME280;1599;51.564;6.990;2024-03-08T01:07:50;101230.41;;;3.45;100.00
3176;BME280;1599;51.564;6.990;2024-03-08T01:10:17;101225.75;;;3.39;100.00
3176;BME280;1599;51.564;6.990;2024-03-08T01:12:43;101218.59;;;3.38;100.00
3176;BME280;1599;51.564;6.990;2024-03-08T01:15:11;101215.22;;;3.36;100.00
3176;BME280;1599;51.564;6.990;2024-03-08T01:17:37;101215.47;;;3.26;100.00
3176;BME280;1599;51.564;6.990;2024-03-08T01:20:04;101212.63;;;3.20;100.00
3176;BME280;1599;51.564;6.990;2024-03-08T01:22:30;101212.94;;;3.25;100.00
3176;BME280;1599;51.564;6.990;2024-03-08T01:24:57;101204.25;;;3.29;100.00
3176;BME280;1599;51.564;6.990;2024-03-08T01:27:23;101202.63;;;3.20;100.00
3176;BME280;1599;51.564;6.990;2024-03-08T01:29:50;101202.78;;;3.19;100.00
3176;BME280;1599;51.564;6.990;2024-03-08T01:32:16;101195.34;;;3.21;100.00
3176;BME280;1599;51.564;6.990;2024-03-08T01:34:42;101198.72;;;3.23;100.00
3176;BME280;1599;51.564;6.990;2024-03-08T01:37:10;101200.97;;;3.11;100.00
3176;BME280;1599;51.564;6.990;2024-03-08T01:39:35;101197.00;;;3.22;100.00
3176;BME280;1599;51.564;6.990;2024-03-08T01:42:01;101188.91;;;3.13;100.00
3176;BME280;1599;51.564;6.990;2024-03-08T01:44:27;101194.34;;;3.13;100.00
3176;BME280;1599;51.564;6.990;2024-03-08T01:46:53;101182.19;;;3.09;100.00
3176;BME280;1599;51.564;6.990;2024-03-08T01:49:22;101180.19;;;3.03;100.00
3176;BME280;1599;51.564;6.990;2024-03-08T01:51:49;101178.19;;;2.97;100.00
3176;BME280;1599;51.564;6.990;2024-03-08T01:54:17;101173.13;;;2.94;100.00
3176;BME280;1599;51.564;6.990;2024-03-08T01:56:44;101171.47;;;2.85;100.00
3176;BME280;1599;51.564;6.990;2024-03-08T01:59:10;101170.81;;;2.83;100.00
3176;BME280;1599;51.564;6.990;2024-03-08T02:01:36;101167.91;;;2.85;100.00
3176;BME280;1599;51.564;6.990;2024-03-08T02:04:01;101166.47;;;2.74;100.00
3176;BME280;1599;51.564;6.990;2024-03-08T02:06:27;101165.75;;;2.80;100.00
3176;BME280;1599;51.564;6.990;2024-03-08T02:08:53;101165.41;;;2.83;100.00
3176;BME280;1599;51.564;6.990;2024-03-08T02:11:19;101167.72;;;2.94;100.00
3176;BME280;1599;51.564;6.990;2024-03-08T02:13:46;101162.38;;;2.78;100.00
3176;BME280;1599;51.564;6.990;2024-03-08T02:16:12;101157.66;;;2.72;100.00
3176;BME280;1599;51.564;6.990;2024-03-08T02:18:38;101147.31;;;2.76;100.00
3176;BME280;1599;51.564;6.990;2024-03-08T02:21:05;101154.28;;;2.70;100.00
3176;BME280;1599;51.564;6.990;2024-03-08T02:23:32;101148.03;;;2.70;100.00
3176;BME280;1599;51.564;6.990;2024-03-08T02:25:58;101146.81;;;2.72;100.00
3176;BME280;1599;51.564;6.990;2024-03-08T02:28:25;101139.06;;;2.61;100.00
3176;BME280;1599;51.564;6.990;2024-03-08T02:30:51;101145.66;;;2.67;100.00
3176;BME280;1599;51.564;6.990;2024-03-08T02:33:17;101136.66;;;2.66;100.00
3176;BME280;1599;51.564;6.990;2024-03-08T02:35:44;101133.31;;;2.64;100.00
3176;BME280;1599;51.564;6.990;2024-03-08T02:38:17;101137.53;;;2.67;100.00
3176;BME280;1599;51.564;6.990;2024-03-08T02:40:44;101135.72;;;2.59;100.00
3176;BME280;1599;51.564;6.990;2024-03-08T02:43:12;101124.16;;;2.65;100.00
3176;BME280;1599;51.564;6.990;2024-03-08T02:45:38;101126.91;;;2.57;100.00
3176;BME280;1599;51.564;6.990;2024-03-08T02:48:05;101123.72;;;2.54;100.00
3176;BME280;1599;51.564;6.990;2024-03-08T02:50:34;101121.53;;;2.49;100.00
3176;BME280;1599;51.564;6.990;2024-03-08T02:53:03;101120.88;;;2.47;100.00
3176;BME280;1599;51.564;6.990;2024-03-08T02:55:29;101125.16;;;2.64;100.00
3176;BME280;1599;51.564;6.990;2024-03-08T02:57:56;101116.78;;;2.51;100.00
3176;BME280;1599;51.564;6.990;2024-03-08T03:00:23;101116.41;;;2.54;100.00
3176;BME280;1599;51.564;6.990;2024-03-08T03:02:49;101117.50;;;2.45;100.00
3176;BME280;1599;51.564;6.990;2024-03-08T03:05:20;101114.72;;;2.53;100.00
3176;BME280;1599;51.564;6.990;2024-03-08T03:07:46;101104.31;;;2.65;100.00
3176;BME280;1599;51.564;6.990;2024-03-08T03:10:12;101100.41;;;2.67;100.00
3176;BME280;1599;51.564;6.990;2024-03-08T03:12:38;101101.84;;;2.55;100.00
3176;BME280;1599;51.564;6.990;2024-03-08T03:15:04;101101.56;;;2.50;100.00
3176;BME280;1599;51.564;6.990;2024-03-08T03:17:32;101099.91;;;2.41;100.00
3176;BME280;1599;51.564;6.990;2024-03-08T03:19:57;101098.44;;;2.53;100.00
3176;BME280;1599;51.564;6.990;2024-03-08T03:22:23;101094.06;;;2.52;100.00
3176;BME280;1599;51.564;6.990;2024-03-08T03:24:51;101090.16;;;2.55;100.00
3176;BME280;1599;51.564;6.990;2024-03-08T03:27:17;101091.97;;;2.62;100.00
3176;BME280;1599;51.564;6.990;2024-03-08T03:29:44;101086.91;;;2.59;100.00
3176;BME280;1599;51.564;6.990;2024-03-08T03:32:13;101085.59;;;2.55;100.00
3176;BME280;1599;51.564;6.990;2024-03-08T03:34:39;101087.59;;;2.30;100.00
3176;BME280;1599;51.564;6.990;2024-03-08T03:37:06;101079.41;;;2.38;100.00
3176;BME280;1599;51.564;6.990;2024-03-08T03:39:38;101088.44;;;2.31;100.00
3176;BME280;1599;51.564;6.990;2024-03-08T03:42:18;101081.56;;;2.43;100.00
3176;BME280;1599;51.564;6.990;2024-03-08T03:44:48;101078.50;;;2.46;100.00
3176;BME280;1599;51.564;6.990;2024-03-08T03:47:15;101080.59;;;2.36;100.00
3176;BME280;1599;51.564;6.990;2024-03-08T03:49:41;101076.88;;;2.37;100.00
3176;BME280;1599;51.564;6.990;2024-03-08T03:52:08;101076.41;;;2.33;100.00
3176;BME280;1599;51.564;6.990;2024-03-08T03:54:34;101073.91;;;2.24;100.00
3176;BME280;1599;51.564;6.990;2024-03-08T03:57:00;101073.97;;;2.16;100.00
3176;BME280;1599;51.564;6.990;2024-03-08T03:59:26;101067.00;;;2.21;100.00
3176;BME280;1599;51.564;6.990;2024-03-08T04:01:53;101064.75;;;2.25;100.00
3176;BME280;1599;51.564;6.990;2024-03-08T04:04:23;101072.88;;;2.25;100.00
3176;BME280;1599;51.564;6.990;2024-03-08T04:06:50;101074.94;;;2.23;100.00
3176;BME280;1599;51.564;6.990;2024-03-08T04:09:17;101066.50;;;2.40;100.00
3176;BME280;1599;51.564;6.990;2024-03-08T04:11:45;101062.03;;;2.25;100.00
3176;BME280;1599;51.564;6.990;2024-03-08T04:14:10;101068.53;;;2.16;100.00
3176;BME280;1599;51.564;6.990;2024-03-08T04:16:37;101065.78;;;2.24;100.00
3176;BME280;1599;51.564;6.990;2024-03-08T04:19:03;101064.09;;;2.23;100.00
3176;BME280;1599;51.564;6.990;2024-03-08T04:21:32;101061.41;;;2.15;100.00
3176;BME280;1599;51.564;6.990;2024-03-08T04:23:58;101056.69;;;2.09;100.00
3176;BME280;1599;51.564;6.990;2024-03-08T04:26:24;101055.31;;;2.21;100.00
3176;BME280;1599;51.564;6.990;2024-03-08T04:28:51;101051.84;;;2.27;100.00
3176;BME280;1599;51.564;6.990;2024-03-08T04:31:17;101051.13;;;2.10;100.00
3176;BME280;1599;51.564;6.990;2024-03-08T04:33:43;101047.91;;;2.07;100.00
3176;BME280;1599;51.564;6.990;2024-03-08T04:36:10;101062.50;;;2.06;100.00
3176;BME280;1599;51.564;6.990;2024-03-08T04:38:39;101050.34;;;1.94;100.00
3176;BME280;1599;51.564;6.990;2024-03-08T04:41:06;101056.81;;;1.93;100.00
3176;BME280;1599;51.564;6.990;2024-03-08T04:43:33;101058.47;;;1.94;100.00
3176;BME280;1599;51.564;6.990;2024-03-08T04:45:59;101048.09;;;2.05;100.00
3176;BME280;1599;51.564;6.990;2024-03-08T04:48:25;101047.34;;;1.88;100.00
3176;BME280;1599;51.564;6.990;2024-03-08T04:50:52;101037.44;;;2.04;100.00
3176;BME280;1599;51.564;6.990;2024-03-08T04:53:19;101028.63;;;2.02;100.00
3176;BME280;1599;51.564;6.990;2024-03-08T04:55:45;101021.91;;;1.98;100.00
3176;BME280;1599;51.564;6.990;2024-03-08T04:58:11;101032.75;;;1.98;100.00
3176;BME280;1599;51.564;6.990;2024-03-08T05:00:36;101022.25;;;1.95;100.00
3176;BME280;1599;51.564;6.990;2024-03-08T05:03:02;101027.69;;;1.95;100.00
3176;BME280;1599;51.564;6.990;2024-03-08T05:05:30;101026.63;;;1.96;100.00
3176;BME280;1599;51.564;6.990;2024-03-08T05:07:56;101028.72;;;1.85;100.00
3176;BME280;1599;51.564;6.990;2024-03-08T05:10:22;101028.38;;;1.88;100.00
3176;BME280;1599;51.564;6.990;2024-03-08T05:12:48;101025.28;;;2.00;100.00
3176;BME280;1599;51.564;6.990;2024-03-08T05:15:13;101018.38;;;1.89;100.00
3176;BME280;1599;51.564;6.990;2024-03-08T05:17:40;101008.94;;;1.85;100.00
3176;BME280;1599;51.564;6.990;2024-03-08T05:20:06;101019.28;;;1.81;100.00
3176;BME280;1599;51.564;6.990;2024-03-08T05:22:37;101016.25;;;1.76;100.00
3176;BME280;1599;51.564;6.990;2024-03-08T05:25:03;101013.91;;;1.73;100.00
3176;BME280;1599;51.564;6.990;2024-03-08T05:27:29;101015.59;;;1.74;100.00
3176;BME280;1599;51.564;6.990;2024-03-08T05:29:56;101015.59;;;1.74;100.00
3176;BME280;1599;51.564;6.990;2024-03-08T05:32:22;101015.22;;;1.77;100.00
3176;BME280;1599;51.564;6.990;2024-03-08T05:34:48;101016.91;;;1.78;100.00
3176;BME280;1599;51.564;6.990;2024-03-08T05:37:13;101008.84;;;1.62;100.00
3176;BME280;1599;51.564;6.990;2024-03-08T05:39:39;101018.34;;;1.66;100.00
3176;BME280;1599;51.564;6.990;2024-03-08T05:42:06;101017.28;;;1.67;100.00
3176;BME280;1599;51.564;6.990;2024-03-08T05:44:34;101015.22;;;1.77;100.00
3176;BME280;1599;51.564;6.990;2024-03-08T05:47:00;101022.91;;;1.66;100.00
3176;BME280;1599;51.564;6.990;2024-03-08T05:49:25;101015.22;;;1.77;100.00
3176;BME280;1599;51.564;6.990;2024-03-08T05:51:51;101015.28;;;1.69;100.00
3176;BME280;1599;51.564;6.990;2024-03-08T05:54:17;101009.91;;;1.61;100.00
3176;BME280;1599;51.564;6.990;2024-03-08T05:56:43;101007.34;;;1.60;100.00
3176;BME280;1599;51.564;6.990;2024-03-08T05:59:10;101010.59;;;1.55;100.00
3176;BME280;1599;51.564;6.990;2024-03-08T06:01:36;101003.13;;;1.57;100.00
3176;BME280;1599;51.564;6.990;2024-03-08T06:04:03;101006.16;;;1.62;100.00
3176;BME280;1599;51.564;6.990;2024-03-08T06:06:29;101009.19;;;1.67;100.00
3176;BME280;1599;51.564;6.990;2024-03-08T06:08:55;101012.19;;;1.72;100.00
3176;BME280;1599;51.564;6.990;2024-03-08T06:11:25;101006.47;;;1.67;100.00
3176;BME280;1599;51.564;6.990;2024-03-08T06:13:52;101007.50;;;1.66;100.00
3176;BME280;1599;51.564;6.990;2024-03-08T06:16:26;101002.78;;;1.60;100.00
3176;BME280;1599;51.564;6.990;2024-03-08T06:18:58;101003.75;;;1.67;100.00
3176;BME280;1599;51.564;6.990;2024-03-08T06:21:27;101003.44;;;1.62;100.00
3176;BME280;1599;51.564;6.990;2024-03-08T06:23:53;101001.38;;;1.72;100.00
3176;BME280;1599;51.564;6.990;2024-03-08T06:26:28;100995.97;;;1.64;100.00
3176;BME280;1599;51.564;6.990;2024-03-08T06:28:54;100995.94;;;1.72;100.00
3176;BME280;1599;51.564;6.990;2024-03-08T06:31:20;100990.84;;;1.77;100.00
3176;BME280;1599;51.564;6.990;2024-03-08T06:33:46;101005.09;;;1.71;100.00
3176;BME280;1599;51.564;6.990;2024-03-08T06:36:12;100994.34;;;1.55;100.00
3176;BME280;1599;51.564;6.990;2024-03-08T06:38:39;100998.91;;;1.55;100.00
3176;BME280;1599;51.564;6.990;2024-03-08T06:41:09;100987.16;;;1.70;100.00
3176;BME280;1599;51.564;6.990;2024-03-08T06:43:44;100988.09;;;1.85;100.00
3176;BME280;1599;51.564;6.990;2024-03-08T06:46:11;100994.91;;;1.81;100.00
3176;BME280;1599;51.564;6.990;2024-03-08T06:48:40;100992.25;;;1.96;100.00
3176;BME280;1599;51.564;6.990;2024-03-08T06:51:06;100989.41;;;1.98;100.00
3176;BME280;1599;51.564;6.990;2024-03-08T06:53:32;100994.13;;;1.96;100.00
3176;BME280;1599;51.564;6.990;2024-03-08T06:55:58;101001.19;;;2.05;100.00
3176;BME280;1599;51.564;6.990;2024-03-08T06:58:24;100993.88;;;2.13;100.00
3176;BME280;1599;51.564;6.990;2024-03-08T07:00:50;100996.94;;;2.10;100.00
3176;BME280;1599;51.564;6.990;2024-03-08T07:03:18;101000.34;;;2.27;100.00
3176;BME280;1599;51.564;6.990;2024-03-08T07:05:44;100988.56;;;2.20;100.00
3176;BME280;1599;51.564;6.990;2024-03-08T07:08:09;100993.88;;;2.36;100.00
3176;BME280;1599;51.564;6.990;2024-03-08T07:10:35;100992.16;;;2.35;100.00
3176;BME280;1599;51.564;6.990;2024-03-08T07:13:02;100988.03;;;2.47;100.00
3176;BME280;1599;51.564;6.990;2024-03-08T07:15:28;100987.59;;;2.58;100.00
3176;BME280;1599;51.564;6.990;2024-03-08T07:17:54;100992.28;;;2.64;100.00
3176;BME280;1599;51.564;6.990;2024-03-08T07:20:20;100990.63;;;2.63;100.00
3176;BME280;1599;51.564;6.990;2024-03-08T07:22:47;100994.69;;;2.59;100.00
3176;BME280;1599;51.564;6.990;2024-03-08T07:25:14;100995.28;;;2.69;100.00
3176;BME280;1599;51.564;6.990;2024-03-08T07:27:51;100992.69;;;2.76;100.00
3176;BME280;1599;51.564;6.990;2024-03-08T07:30:19;100992.34;;;2.93;100.00
3176;BME280;1599;51.564;6.990;2024-03-08T07:33:05;100991.94;;;2.82;100.00
3176;BME280;1599;51.564;6.990;2024-03-08T07:35:32;100989.78;;;2.77;100.00
3176;BME280;1599;51.564;6.990;2024-03-08T07:37:58;100994.06;;;2.94;100.00
3176;BME280;1599;51.564;6.990;2024-03-08T07:40:25;100987.88;;;3.00;100.00
3176;BME280;1599;51.564;6.990;2024-03-08T07:42:52;100992.00;;;3.11;100.00
3176;BME280;1599;51.564;6.990;2024-03-08T07:45:18;100987.97;;;3.07;100.00
3176;BME280;1599;51.564;6.990;2024-03-08T07:47:43;100980.31;;;3.25;100.00
3176;BME280;1599;51.564;6.990;2024-03-08T07:50:10;100978.34;;;3.34;100.00
3176;BME280;1599;51.564;6.990;2024-03-08T07:52:36;100979.47;;;3.54;100.00
3176;BME280;1599;51.564;6.990;2024-03-08T07:55:02;100978.91;;;3.58;100.00
3176;BME280;1599;51.564;6.990;2024-03-08T07:57:29;100973.16;;;3.68;100.00
3176;BME280;1599;51.564;6.990;2024-03-08T07:59:55;100968.63;;;3.90;100.00
3176;BME280;1599;51.564;6.990;2024-03-08T08:02:21;100969.84;;;3.87;100.00
3176;BME280;1599;51.564;6.990;2024-03-08T08:04:47;100963.72;;;4.00;100.00
3176;BME280;1599;51.564;6.990;2024-03-08T08:07:13;100963.09;;;4.19;100.00
3176;BME280;1599;51.564;6.990;2024-03-08T08:09:40;100961.63;;;4.38;100.00
3176;BME280;1599;51.564;6.990;2024-03-08T08:12:09;100947.44;;;4.42;100.00
3176;BME280;1599;51.564;6.990;2024-03-08T08:14:38;100945.94;;;4.61;100.00
3176;BME280;1599;51.564;6.990;2024-03-08T08:17:04;100946.81;;;4.68;100.00
3176;BME280;1599;51.564;6.990;2024-03-08T08:19:31;100943.19;;;4.82;100.00
3176;BME280;1599;51.564;6.990;2024-03-08T08:21:57;100934.19;;;4.88;100.00
3176;BME280;1599;51.564;6.990;2024-03-08T08:24:23;100941.75;;;5.20;100.00
3176;BME280;1599;51.564;6.990;2024-03-08T08:26:49;100932.59;;;5.28;100.00
3176;BME280;1599;51.564;6.990;2024-03-08T08:29:16;100937.50;;;5.11;100.00
3176;BME280;1599;51.564;6.990;2024-03-08T08:31:41;100927.81;;;5.36;100.00
3176;BME280;1599;51.564;6.990;2024-03-08T08:34:09;100930.59;;;5.49;100.00
3176;BME280;1599;51.564;6.990;2024-03-08T08:36:37;100917.78;;;5.43;100.00
3176;BME280;1599;51.564;6.990;2024-03-08T08:39:05;100916.41;;;5.67;100.00
3176;BME280;1599;51.564;6.990;2024-03-08T08:41:35;100908.88;;;5.63;100.00
3176;BME280;1599;51.564;6.990;2024-03-08T08:44:01;100905.16;;;5.83;100.00
3176;BME280;1599;51.564;6.990;2024-03-08T08:46:27;100898.00;;;5.82;100.00
3176;BME280;1599;51.564;6.990;2024-03-08T08:48:52;100896.81;;;5.91;100.00
3176;BME280;1599;51.564;6.990;2024-03-08T08:51:18;100893.31;;;6.17;100.00
3176;BME280;1599;51.564;6.990;2024-03-08T08:53:44;100886.38;;;6.34;100.00
3176;BME280;1599;51.564;6.990;2024-03-08T08:56:11;100889.50;;;6.18;100.00
3176;BME280;1599;51.564;6.990;2024-03-08T08:58:42;100882.19;;;6.18;100.00
3176;BME280;1599;51.564;6.990;2024-03-08T09:01:09;100884.72;;;6.33;100.00
3176;BME280;1599;51.564;6.990;2024-03-08T09:03:37;100888.94;;;6.62;98.13
3176;BME280;1599;51.564;6.990;2024-03-08T09:06:08;100882.56;;;7.01;95.31
3176;BME280;1599;51.564;6.990;2024-03-08T09:08:36;100873.69;;;7.18;94.36
3176;BME280;1599;51.564;6.990;2024-03-08T09:11:02;100872.63;;;7.26;91.93
3176;BME280;1599;51.564;6.990;2024-03-08T09:13:28;100858.34;;;7.68;89.96
3176;BME280;1599;51.564;6.990;2024-03-08T09:15:53;100851.69;;;7.51;88.17
3176;BME280;1599;51.564;6.990;2024-03-08T09:18:19;100854.63;;;8.19;87.47
3176;BME280;1599;51.564;6.990;2024-03-08T09:20:45;100846.56;;;8.37;83.12
3176;BME280;1599;51.564;6.990;2024-03-08T09:23:11;100837.03;;;8.64;83.71
3176;BME280;1599;51.564;6.990;2024-03-08T09:25:36;100848.03;;;9.00;81.30
3176;BME280;1599;51.564;6.990;2024-03-08T09:28:03;100834.94;;;9.39;79.66
3176;BME280;1599;51.564;6.990;2024-03-08T09:30:29;100835.75;;;9.87;78.06
3176;BME280;1599;51.564;6.990;2024-03-08T09:32:54;100832.59;;;9.06;76.76
3176;BME280;1599;51.564;6.990;2024-03-08T09:35:20;100825.53;;;9.94;75.47
3176;BME280;1599;51.564;6.990;2024-03-08T09:37:46;100825.31;;;10.48;74.51
3176;BME280;1599;51.564;6.990;2024-03-08T09:40:17;100824.34;;;10.31;73.45
3176;BME280;1599;51.564;6.990;2024-03-08T09:42:47;100825.97;;;9.91;75.02
3176;BME280;1599;51.564;6.990;2024-03-08T09:45:13;100816.44;;;10.23;73.67
3176;BME280;1599;51.564;6.990;2024-03-08T09:47:44;100810.03;;;10.52;73.26
3176;BME280;1599;51.564;6.990;2024-03-08T09:50:11;100807.75;;;10.73;70.87
3176;BME280;1599;51.564;6.990;2024-03-08T09:52:42;100799.63;;;9.30;73.99
3176;BME280;1599;51.564;6.990;2024-03-08T09:55:10;100802.19;;;9.44;74.91
3176;BME280;1599;51.564;6.990;2024-03-08T09:57:40;100793.69;;;9.63;74.39
3176;BME280;1599;51.564;6.990;2024-03-08T10:00:08;100785.72;;;9.73;73.33
3176;BME280;1599;51.564;6.990;2024-03-08T10:02:47;100784.81;;;9.91;72.90
3176;BME280;1599;51.564;6.990;2024-03-08T10:05:14;100781.88;;;10.04;72.50
3176;BME280;1599;51.564;6.990;2024-03-08T10:07:40;100777.13;;;9.70;73.70
3176;BME280;1599;51.564;6.990;2024-03-08T10:10:06;100778.50;;;9.31;73.91
3176;BME280;1599;51.564;6.990;2024-03-08T10:12:34;100778.72;;;9.48;75.97
3176;BME280;1599;51.564;6.990;2024-03-08T10:15:00;100765.69;;;9.73;74.79
3176;BME280;1599;51.564;6.990;2024-03-08T10:17:26;100764.16;;;10.18;72.91
3176;BME280;1599;51.564;6.990;2024-03-08T10:19:53;100761.69;;;9.87;72.82
3176;BME280;1599;51.564;6.990;2024-03-08T10:22:19;100771.22;;;9.96;74.10
3176;BME280;1599;51.564;6.990;2024-03-08T10:24:46;100757.66;;;9.60;73.66
3176;BME280;1599;51.564;6.990;2024-03-08T10:27:12;100766.63;;;10.08;74.15
3176;BME280;1599;51.564;6.990;2024-03-08T10:29:38;100757.03;;;9.87;74.55
3176;BME280;1599;51.564;6.990;2024-03-08T10:32:09;100759.31;;;10.02;73.34
3176;BME280;1599;51.564;6.990;2024-03-08T10:34:34;100753.41;;;9.75;73.37
3176;BME280;1599;51.564;6.990;2024-03-08T10:37:04;100752.84;;;9.85;72.57
3176;BME280;1599;51.564;6.990;2024-03-08T10:39:36;100748.34;;;10.02;73.01
3176;BME280;1599;51.564;6.990;2024-03-08T10:42:05;100744.44;;;9.57;73.77
3176;BME280;1599;51.564;6.990;2024-03-08T10:44:49;100742.69;;;9.74;73.38
3176;BME280;1599;51.564;6.990;2024-03-08T10:47:26;100732.59;;;9.26;74.51
3176;BME280;1599;51.564;6.990;2024-03-08T10:50:11;100730.94;;;9.55;74.85
3176;BME280;1599;51.564;6.990;2024-03-08T10:52:43;100727.47;;;9.60;75.44
3176;BME280;1599;51.564;6.990;2024-03-08T10:55:10;100728.19;;;9.25;75.51
3176;BME280;1599;51.564;6.990;2024-03-08T10:57:39;100723.06;;;8.63;77.73
3176;BME280;1599;51.564;6.990;2024-03-08T11:00:08;100716.16;;;9.26;77.51
3176;BME280;1599;51.564;6.990;2024-03-08T11:02:37;100705.38;;;9.13;75.39
3176;BME280;1599;51.564;6.990;2024-03-08T11:05:10;100714.59;;;9.49;75.11
3176;BME280;1599;51.564;6.990;2024-03-08T11:07:42;100707.47;;;9.71;74.51
3176;BME280;1599;51.564;6.990;2024-03-08T11:10:19;100711.03;;;9.60;75.54
3176;BME280;1599;51.564;6.990;2024-03-08T11:12:45;100699.06;;;9.43;76.80
3176;BME280;1599;51.564;6.990;2024-03-08T11:15:13;100690.94;;;9.06;75.36
3176;BME280;1599;51.564;6.990;2024-03-08T11:20:12;100683.63;;;9.00;78.64
3176;BME280;1599;51.564;6.990;2024-03-08T11:22:55;100678.81;;;9.44;76.74
3176;BME280;1599;51.564;6.990;2024-03-08T11:25:40;100682.06;;;9.22;77.19
3176;BME280;1599;51.564;6.990;2024-03-08T11:28:18;100672.88;;;9.17;77.44
3176;BME280;1599;51.564;6.990;2024-03-08T11:30:46;100669.88;;;9.18;76.98
3176;BME280;1599;51.564;6.990;2024-03-08T11:33:15;100664.69;;;9.28;76.96
3176;BME280;1599;51.564;6.990;2024-03-08T11:35:42;100667.41;;;9.70;76.29
3176;BME280;1599;51.564;6.990;2024-03-08T11:38:11;100652.19;;;9.44;75.88
3176;BME280;1599;51.564;6.990;2024-03-08T11:40:39;100645.69;;;9.57;75.80
3176;BME280;1599;51.564;6.990;2024-03-08T11:43:05;100652.16;;;9.97;75.34
3176;BME280;1599;51.564;6.990;2024-03-08T11:45:34;100646.81;;;9.90;74.99
3176;BME280;1599;51.564;6.990;2024-03-08T11:48:05;100641.88;;;10.04;74.80
3176;BME280;1599;51.564;6.990;2024-03-08T11:50:31;100634.13;;;9.78;75.26
3176;BME280;1599;51.564;6.990;2024-03-08T11:53:03;100631.53;;;9.94;74.99
3176;BME280;1599;51.564;6.990;2024-03-08T11:55:31;100632.00;;;9.80;75.10
3176;BME280;1599;51.564;6.990;2024-03-08T11:58:05;100633.88;;;9.56;76.36
3176;BME280;1599;51.564;6.990;2024-03-08T12:00:31;100621.63;;;9.82;75.49
3176;BME280;1599;51.564;6.990;2024-03-08T12:03:08;100606.94;;;10.23;73.39
3176;BME280;1599;51.564;6.990;2024-03-08T12:05:35;100614.19;;;10.40;73.79
3176;BME280;1599;51.564;6.990;2024-03-08T12:08:05;100602.28;;;10.23;74.11
3176;BME280;1599;51.564;6.990;2024-03-08T12:10:33;100603.97;;;10.24;74.10
3176;BME280;1599;51.564;6.990;2024-03-08T12:13:00;100593.91;;;10.41;73.23
3176;BME280;1599;51.564;6.990;2024-03-08T12:15:27;100585.47;;;10.60;72.39
3176;BME280;1599;51.564;6.990;2024-03-08T12:17:54;100575.19;;;10.95;73.42
3176;BME280;1599;51.564;6.990;2024-03-08T12:20:27;100566.53;;;10.75;72.23
3176;BME280;1599;51.564;6.990;2024-03-08T12:22:55;100570.59;;;10.56;71.53
3176;BME280;1599;51.564;6.990;2024-03-08T12:25:31;100561.22;;;10.68;72.04
3176;BME280;1599;51.564;6.990;2024-03-08T12:28:08;100549.94;;;10.98;71.21
3176;BME280;1599;51.564;6.990;2024-03-08T12:30:58;100547.47;;;11.30;71.74
3176;BME280;1599;51.564;6.990;2024-03-08T12:33:25;100540.81;;;11.09;70.11
3176;BME280;1599;51.564;6.990;2024-03-08T12:35:52;100535.97;;;11.16;70.71
3176;BME280;1599;51.564;6.990;2024-03-08T12:38:20;100528.63;;;11.22;69.85
3176;BME280;1599;51.564;6.990;2024-03-08T12:40:50;100536.03;;;11.21;71.29
3176;BME280;1599;51.564;6.990;2024-03-08T12:43:16;100525.63;;;11.56;70.11
3176;BME280;1599;51.564;6.990;2024-03-08T12:45:43;100516.63;;;11.77;68.14
3176;BME280;1599;51.564;6.990;2024-03-08T12:48:13;100525.34;;;12.13;66.99
3176;BME280;1599;51.564;6.990;2024-03-08T12:50:41;100517.09;;;12.13;65.81
3176;BME280;1599;51.564;6.990;2024-03-08T12:53:10;100511.41;;;11.98;66.48
3176;BME280;1599;51.564;6.990;2024-03-08T12:55:35;100513.44;;;11.86;67.14
3176;BME280;1599;51.564;6.990;2024-03-08T12:58:01;100500.63;;;12.18;65.86
3176;BME280;1599;51.564;6.990;2024-03-08T13:00:27;100495.94;;;11.97;66.91
3176;BME280;1599;51.564;6.990;2024-03-08T13:02:53;100481.69;;;11.61;68.04
3176;BME280;1599;51.564;6.990;2024-03-08T13:05:20;100477.22;;;11.94;68.42
3176;BME280;1599;51.564;6.990;2024-03-08T13:07:46;100475.16;;;12.06;67.76
3176;BME280;1599;51.564;6.990;2024-03-08T13:10:13;100478.72;;;12.28;67.47
3176;BME280;1599;51.564;6.990;2024-03-08T13:12:45;100467.31;;;12.41;64.25
3176;BME280;1599;51.564;6.990;2024-03-08T13:15:11;100467.63;;;12.71;65.40
3176;BME280;1599;51.564;6.990;2024-03-08T13:17:41;100456.94;;;12.48;67.25